Time;durP1;ratioP1;P1;durP2;ratioP2;P2;SDS_P1;SDS_P2;PMS_P1;PMS_P2;Temp;Humidity;BMP_temperature;BMP_pressure;BME280_temperature;BME280_humidity;BME280_pressure;Samples;Min_cycle;Max_cycle;Signal;HPM_P1;HPM_P2
2021/08/20 00:01:54;;;;;;;4.10;2.13;;;;;;;;;;4962136;28;20019;-87
2021/08/20 00:04:19;;;;;;;4.63;2.70;;;;;;;;;;4962775;28;20027;-86
2021/08/20 00:06:44;;;;;;;7.70;2.10;;;;;;;;;;4952509;28;20019;-87
2021/08/20 00:09:10;;;;;;;3.87;2.57;;;;;;;;;;4962884;28;20270;-87
2021/08/20 00:11:36;;;;;;;5.55;2.20;;;;;;;;;;4958818;28;20251;-85
2021/08/20 00:14:02;;;;;;;4.22;2.80;;;;;;;;;;4960656;28;20433;-86
2021/08/20 00:16:27;;;;;;;5.40;2.43;;;;;;;;;;4963898;28;20117;-86
2021/08/20 00:18:52;;;;;;;5.97;2.30;;;;;;;;;;4960018;28;21073;-86
2021/08/20 00:21:17;;;;;;;5.38;2.83;;;;;;;;;;4956955;28;20031;-86
2021/08/20 00:23:43;;;;;;;7.70;2.23;;;;;;;;;;4960528;28;20026;-87
2021/08/20 00:26:08;;;;;;;5.75;2.33;;;;;;;;;;4960859;28;20289;-87
2021/08/20 00:28:33;;;;;;;5.13;2.58;;;;;;;;;;4963257;28;20010;-88
2021/08/20 00:30:59;;;;;;;8.13;2.33;;;;;;;;;;4958929;28;20019;-87
2021/08/20 00:33:24;;;;;;;3.70;2.28;;;;;;;;;;4965736;28;20357;-85
2021/08/20 00:35:50;;;;;;;3.35;2.13;;;;;;;;;;4964302;28;20035;-86
2021/08/20 00:38:15;;;;;;;6.65;2.22;;;;;;;;;;4963096;28;20432;-87
2021/08/20 00:40:42;;;;;;;5.18;2.50;;;;;;;;;;4960952;28;20031;-86
2021/08/20 00:43:07;;;;;;;5.43;2.40;;;;;;;;;;4961127;28;20031;-87
2021/08/20 00:45:35;;;;;;;5.68;2.35;;;;;;;;;;4964460;28;20390;-87
2021/08/20 00:48:00;;;;;;;5.38;2.28;;;;;;;;;;4962451;28;20378;-87
2021/08/20 00:50:26;;;;;;;6.80;2.27;;;;;;;;;;4962011;28;20099;-86
2021/08/20 00:52:52;;;;;;;7.30;2.13;;;;;;;;;;4960204;28;20306;-86
2021/08/20 00:55:19;;;;;;;5.88;2.40;;;;;;;;;;4963805;28;20027;-87
2021/08/20 00:57:48;;;;;;;4.15;2.47;;;;;;;;;;4964594;28;20462;-89
2021/08/20 01:00:14;;;;;;;3.73;2.17;;;;;;;;;;4963128;28;20130;-87
2021/08/20 01:02:39;;;;;;;7.82;2.28;;;;;;;;;;4962336;28;20645;-86
2021/08/20 01:05:06;;;;;;;5.13;2.33;;;;;;;;;;4968893;28;20022;-86
2021/08/20 01:07:36;;;;;;;3.20;2.15;;;;;;;;;;4957574;28;20279;-86
2021/08/20 01:10:02;;;;;;;3.88;2.17;;;;;;;;;;4968084;28;20438;-88
2021/08/20 01:12:27;;;;;;;4.45;2.30;;;;;;;;;;4955129;28;20053;-87
2021/08/20 01:14:52;;;;;;;2.72;1.85;;;;;;;;;;4960725;28;20016;-86
2021/08/20 01:17:18;;;;;;;4.15;1.92;;;;;;;;;;4962407;28;20027;-87
2021/08/20 01:19:43;;;;;;;3.72;2.83;;;;;;;;;;4959601;28;20065;-87
2021/08/20 01:22:09;;;;;;;5.50;2.00;;;;;;;;;;4962824;28;20027;-88
2021/08/20 01:24:34;;;;;;;3.17;1.83;;;;;;;;;;4963052;28;20061;-86
2021/08/20 01:26:59;;;;;;;3.20;1.88;;;;;;;;;;4959177;28;20114;-86
2021/08/20 01:29:25;;;;;;;7.00;2.20;;;;;;;;;;4962592;28;20027;-86
2021/08/20 01:31:51;;;;;;;3.63;2.17;;;;;;;;;;4963415;28;20023;-86
2021/08/20 01:34:19;;;;;;;4.03;1.95;;;;;;;;;;4964763;28;20023;-87
2021/08/20 01:36:45;;;;;;;6.20;2.28;;;;;;;;;;4960248;28;20355;-87
2021/08/20 01:39:10;;;;;;;4.33;2.27;;;;;;;;;;4956839;28;20031;-87
2021/08/20 01:41:35;;;;;;;3.47;1.80;;;;;;;;;;4955349;28;20776;-88
2021/08/20 01:44:01;;;;;;;3.25;2.20;;;;;;;;;;4962700;28;20027;-88
2021/08/20 01:46:27;;;;;;;5.80;2.00;;;;;;;;;;4957080;28;20055;-85
2021/08/20 01:48:54;;;;;;;3.85;1.95;;;;;;;;;;4961556;28;20417;-86
2021/08/20 01:51:20;;;;;;;5.38;2.33;;;;;;;;;;4954772;28;20415;-85
2021/08/20 01:53:46;;;;;;;4.18;1.90;;;;;;;;;;4957096;28;20389;-85
2021/08/20 01:56:13;;;;;;;5.93;2.05;;;;;;;;;;4963964;28;20364;-86
2021/08/20 01:58:38;;;;;;;4.45;2.08;;;;;;;;;;4962313;28;20039;-87
2021/08/20 02:01:03;;;;;;;3.30;1.75;;;;;;;;;;4957613;28;20077;-87
2021/08/20 02:03:29;;;;;;;4.17;2.07;;;;;;;;;;4963189;28;20039;-88
2021/08/20 02:05:54;;;;;;;3.42;2.10;;;;;;;;;;4962842;28;20279;-87
2021/08/20 02:08:19;;;;;;;4.93;2.43;;;;;;;;;;4962923;28;20034;-88
2021/08/20 02:10:44;;;;;;;5.47;1.87;;;;;;;;;;4962880;28;20038;-85
2021/08/20 02:13:10;;;;;;;3.05;2.03;;;;;;;;;;4962757;28;20262;-85
2021/08/20 02:15:37;;;;;;;4.70;2.38;;;;;;;;;;4955066;28;20031;-85
2021/08/20 02:18:02;;;;;;;4.80;2.20;;;;;;;;;;4959949;28;20381;-87
2021/08/20 02:20:28;;;;;;;3.72;1.90;;;;;;;;;;4961591;28;20018;-86
2021/08/20 02:22:53;;;;;;;4.97;2.35;;;;;;;;;;4967623;28;20031;-87
2021/08/20 02:25:18;;;;;;;5.07;1.88;;;;;;;;;;4961163;28;20130;-87
2021/08/20 02:27:44;;;;;;;2.90;2.10;;;;;;;;;;4960869;28;20096;-87
2021/08/20 02:30:09;;;;;;;3.10;2.03;;;;;;;;;;4962597;28;20267;-87
2021/08/20 02:32:34;;;;;;;4.53;2.08;;;;;;;;;;4961089;28;20107;-87
2021/08/20 02:35:01;;;;;;;2.50;2.03;;;;;;;;;;4952093;28;20019;-87
2021/08/20 02:37:26;;;;;;;3.40;2.28;;;;;;;;;;4967404;28;20526;-90
2021/08/20 02:39:51;;;;;;;3.67;2.15;;;;;;;;;;4964009;28;20023;-89
2021/08/20 02:42:16;;;;;;;3.07;1.80;;;;;;;;;;4972634;28;20075;-89
2021/08/20 02:44:42;;;;;;;6.93;2.03;;;;;;;;;;4948762;28;20290;-88
2021/08/20 02:47:07;;;;;;;5.33;2.00;;;;;;;;;;4961703;28;20278;-88
2021/08/20 02:49:32;;;;;;;4.23;2.47;;;;;;;;;;4969777;28;20038;-88
2021/08/20 02:51:57;;;;;;;3.50;2.38;;;;;;;;;;4961374;28;20047;-89
2021/08/20 02:54:23;;;;;;;2.63;1.90;;;;;;;;;;4969352;28;20024;-88
2021/08/20 02:56:48;;;;;;;3.37;2.20;;;;;;;;;;4967988;28;20113;-88
2021/08/20 02:59:13;;;;;;;2.47;1.60;;;;;;;;;;4974604;28;20337;-88
2021/08/20 03:01:39;;;;;;;6.90;2.55;;;;;;;;;;4970882;28;20015;-88
2021/08/20 03:04:04;;;;;;;3.37;2.00;;;;;;;;;;4944036;28;20024;-87
2021/08/20 03:06:29;;;;;;;2.78;1.70;;;;;;;;;;4968861;28;20286;-87
2021/08/20 03:08:55;;;;;;;5.78;2.40;;;;;;;;;;4967003;28;20030;-87
2021/08/20 03:11:20;;;;;;;2.42;2.05;;;;;;;;;;4962344;28;20019;-87
2021/08/20 03:13:45;;;;;;;3.07;1.93;;;;;;;;;;4963894;28;20118;-80
2021/08/20 03:16:10;;;;;;;4.67;1.90;;;;;;;;;;4957370;28;20306;-80
2021/08/20 03:18:36;;;;;;;4.45;2.30;;;;;;;;;;4958141;28;20281;-79
2021/08/20 03:21:01;;;;;;;5.50;2.38;;;;;;;;;;4957835;28;20028;-80
2021/08/20 03:23:27;;;;;;;3.20;1.95;;;;;;;;;;4964464;28;20501;-80
2021/08/20 03:25:52;;;;;;;3.07;1.97;;;;;;;;;;4960217;28;20031;-80
2021/08/20 03:28:17;;;;;;;2.80;2.10;;;;;;;;;;4970734;28;20285;-80
2021/08/20 03:30:42;;;;;;;3.17;2.28;;;;;;;;;;4961190;28;20070;-80
2021/08/20 03:33:07;;;;;;;4.47;2.33;;;;;;;;;;4968138;28;20037;-80
2021/08/20 03:35:33;;;;;;;5.63;2.40;;;;;;;;;;4963385;28;20354;-80
2021/08/20 03:37:58;;;;;;;5.95;2.50;;;;;;;;;;4959743;28;20306;-80
2021/08/20 03:40:26;;;;;;;4.15;1.95;;;;;;;;;;4960475;28;20039;-80
2021/08/20 03:42:55;;;;;;;2.72;1.85;;;;;;;;;;4963668;28;20385;-80
2021/08/20 03:45:21;;;;;;;5.18;2.13;;;;;;;;;;4963732;28;20570;-80
2021/08/20 03:47:47;;;;;;;3.72;1.88;;;;;;;;;;4963727;28;20114;-80
2021/08/20 03:50:13;;;;;;;4.03;2.47;;;;;;;;;;4963163;28;20168;-80
2021/08/20 03:52:38;;;;;;;6.25;2.67;;;;;;;;;;4957480;28;20752;-80
2021/08/20 03:55:04;;;;;;;6.13;2.55;;;;;;;;;;4965068;28;20019;-80
2021/08/20 03:57:29;;;;;;;6.90;2.58;;;;;;;;;;4963740;28;20049;-81
2021/08/20 03:59:56;;;;;;;3.70;2.10;;;;;;;;;;4962239;28;20109;-81
2021/08/20 04:02:21;;;;;;;3.13;1.95;;;;;;;;;;4956187;28;20437;-80
2021/08/20 04:04:47;;;;;;;4.30;2.20;;;;;;;;;;4962910;28;20057;-80
2021/08/20 04:07:14;;;;;;;4.17;2.77;;;;;;;;;;4959901;28;20019;-80
2021/08/20 04:09:40;;;;;;;2.80;2.30;;;;;;;;;;4962402;28;20263;-81
2021/08/20 04:12:06;;;;;;;6.55;2.38;;;;;;;;;;4962141;28;20073;-79
2021/08/20 04:14:31;;;;;;;3.92;2.40;;;;;;;;;;4961950;28;20055;-80
2021/08/20 04:16:56;;;;;;;3.57;2.53;;;;;;;;;;4960803;28;20016;-80
2021/08/20 04:19:21;;;;;;;3.13;1.93;;;;;;;;;;4956847;28;20262;-81
2021/08/20 04:21:46;;;;;;;7.53;2.50;;;;;;;;;;4958021;28;20285;-80
2021/08/20 04:24:14;;;;;;;3.93;2.40;;;;;;;;;;4956143;28;20030;-80
2021/08/20 04:26:40;;;;;;;4.22;2.53;;;;;;;;;;4955464;28;20627;-80
2021/08/20 04:29:05;;;;;;;4.43;2.30;;;;;;;;;;4961883;28;20058;-80
2021/08/20 04:31:30;;;;;;;6.78;2.60;;;;;;;;;;4962197;28;20030;-81
2021/08/20 04:33:56;;;;;;;2.60;1.90;;;;;;;;;;4962191;28;20010;-80
2021/08/20 04:36:21;;;;;;;3.83;2.38;;;;;;;;;;4952353;28;20303;-80
2021/08/20 04:38:47;;;;;;;8.10;2.85;;;;;;;;;;4962216;28;20027;-79
2021/08/20 04:41:12;;;;;;;7.15;2.60;;;;;;;;;;4966044;28;20057;-81
2021/08/20 04:43:37;;;;;;;8.85;2.65;;;;;;;;;;4960091;28;20030;-81
2021/08/20 04:46:03;;;;;;;7.37;2.73;;;;;;;;;;4960478;28;20083;-81
2021/08/20 04:48:28;;;;;;;5.80;2.10;;;;;;;;;;4962431;28;20251;-80
2021/08/20 04:50:54;;;;;;;7.37;2.67;;;;;;;;;;4944791;28;20027;-79
2021/08/20 04:53:19;;;;;;;3.95;2.28;;;;;;;;;;4955405;28;20262;-81
2021/08/20 04:55:45;;;;;;;4.18;2.17;;;;;;;;;;4959686;28;20110;-80
2021/08/20 04:58:10;;;;;;;6.28;2.47;;;;;;;;;;4963922;28;20077;-80
2021/08/20 05:00:35;;;;;;;3.97;2.40;;;;;;;;;;4962553;28;20061;-80
2021/08/20 05:03:01;;;;;;;6.77;2.47;;;;;;;;;;4958333;28;20035;-81
2021/08/20 05:05:27;;;;;;;2.77;2.07;;;;;;;;;;4959827;28;20274;-79
2021/08/20 05:07:52;;;;;;;5.38;2.75;;;;;;;;;;4966385;28;20278;-79
2021/08/20 05:10:21;;;;;;;5.60;2.10;;;;;;;;;;4961490;28;20015;-80
2021/08/20 05:12:46;;;;;;;3.58;2.28;;;;;;;;;;4957221;28;20216;-79
2021/08/20 05:15:11;;;;;;;6.57;2.50;;;;;;;;;;4958841;28;20019;-81
2021/08/20 05:17:37;;;;;;;8.90;2.60;;;;;;;;;;4955138;28;20366;-79
2021/08/20 05:20:03;;;;;;;4.55;2.38;;;;;;;;;;4963163;28;20023;-79
2021/08/20 05:22:41;;;;;;;5.90;2.45;;;;;;;;;;4955920;28;20422;-79
2021/08/20 05:25:07;;;;;;;8.77;3.13;;;;;;;;;;4961325;28;20598;-79
2021/08/20 05:27:32;;;;;;;6.18;2.40;;;;;;;;;;4958868;28;20042;-80
2021/08/20 05:29:57;;;;;;;3.40;2.20;;;;;;;;;;4958552;28;20069;-80
2021/08/20 05:32:24;;;;;;;6.17;2.73;;;;;;;;;;4965449;28;20113;-80
2021/08/20 05:34:49;;;;;;;8.82;2.70;;;;;;;;;;4963991;28;20374;-79
2021/08/20 05:37:14;;;;;;;6.93;2.53;;;;;;;;;;4965239;28;20038;-80
2021/08/20 05:39:39;;;;;;;4.75;2.70;;;;;;;;;;4968356;28;20254;-79
2021/08/20 05:42:05;;;;;;;7.10;2.70;;;;;;;;;;4966868;28;20034;-79
2021/08/20 05:44:30;;;;;;;5.70;2.38;;;;;;;;;;4967970;28;20313;-81
2021/08/20 05:46:59;;;;;;;5.78;2.28;;;;;;;;;;4964074;28;20093;-79
2021/08/20 05:49:25;;;;;;;4.18;2.35;;;;;;;;;;4958808;28;20037;-85
2021/08/20 05:51:51;;;;;;;4.07;2.10;;;;;;;;;;4957370;28;20378;-84
2021/08/20 05:54:16;;;;;;;5.47;2.45;;;;;;;;;;4945902;28;20062;-76
2021/08/20 05:56:42;;;;;;;4.80;2.58;;;;;;;;;;4969573;28;20035;-80
2021/08/20 05:59:08;;;;;;;3.90;2.30;;;;;;;;;;4969470;28;20074;-80
2021/08/20 06:01:34;;;;;;;4.28;2.25;;;;;;;;;;4966396;28;20455;-79
2021/08/20 06:03:59;;;;;;;4.75;2.58;;;;;;;;;;4962605;28;20062;-80
2021/08/20 06:06:25;;;;;;;12.95;9.82;;;;;;;;;;4970234;28;20015;-82
2021/08/20 06:08:51;;;;;;;21.60;14.18;;;;;;;;;;4966039;28;20487;-82
2021/08/20 06:11:16;;;;;;;7.25;4.10;;;;;;;;;;4964947;28;20031;-81
2021/08/20 06:13:43;;;;;;;7.88;2.72;;;;;;;;;;4963016;28;20023;-81
2021/08/20 06:16:08;;;;;;;4.07;2.47;;;;;;;;;;4962154;28;20422;-82
2021/08/20 06:18:34;;;;;;;3.30;2.30;;;;;;;;;;4966935;28;20031;-82
2021/08/20 06:20:59;;;;;;;6.85;2.50;;;;;;;;;;4944668;28;20027;-80
2021/08/20 06:23:25;;;;;;;3.88;2.03;;;;;;;;;;4965020;28;20550;-79
2021/08/20 06:25:50;;;;;;;3.65;2.20;;;;;;;;;;4965908;28;20047;-80
2021/08/20 06:28:16;;;;;;;5.47;2.22;;;;;;;;;;4967255;28;20027;-87
2021/08/20 06:30:46;;;;;;;7.38;2.72;;;;;;;;;;4966841;28;20027;-87
2021/08/20 06:33:12;;;;;;;5.93;3.03;;;;;;;;;;4958960;28;20019;-85
2021/08/20 06:35:38;;;;;;;5.93;3.17;;;;;;;;;;4965558;28;20102;-88
2021/08/20 06:38:03;;;;;;;7.45;3.28;;;;;;;;;;4963620;28;20023;-87
2021/08/20 06:40:28;;;;;;;5.60;2.80;;;;;;;;;;4965444;28;20069;-87
2021/08/20 06:42:54;;;;;;;3.97;2.80;;;;;;;;;;4967985;28;20031;-86
2021/08/20 06:45:19;;;;;;;5.10;2.70;;;;;;;;;;4959203;28;20031;-84
2021/08/20 06:47:45;;;;;;;4.82;2.97;;;;;;;;;;4965447;28;20027;-83
2021/08/20 06:50:22;;;;;;;4.57;2.90;;;;;;;;;;4965205;28;20051;-85
2021/08/20 06:52:48;;;;;;;3.95;2.90;;;;;;;;;;4959453;28;20445;-85
2021/08/20 06:55:13;;;;;;;5.13;3.08;;;;;;;;;;4963528;28;20062;-85
2021/08/20 06:57:38;;;;;;;5.53;3.50;;;;;;;;;;4962764;28;20043;-84
2021/08/20 07:00:04;;;;;;;9.57;6.50;;;;;;;;;;4966621;28;20037;-86
2021/08/20 07:02:30;;;;;;;15.23;12.07;;;;;;;;;;4967511;28;20033;-85
2021/08/20 07:04:55;;;;;;;8.87;4.20;;;;;;;;;;4961402;28;20030;-83
2021/08/20 07:07:20;;;;;;;5.83;3.40;;;;;;;;;;4964292;28;20279;-84
2021/08/20 07:09:45;;;;;;;4.28;2.95;;;;;;;;;;4971980;28;20023;-84
2021/08/20 07:12:11;;;;;;;5.35;2.90;;;;;;;;;;4968223;28;20122;-87
2021/08/20 07:14:36;;;;;;;5.00;2.97;;;;;;;;;;4962473;28;20113;-86
2021/08/20 07:17:02;;;;;;;5.80;3.20;;;;;;;;;;4969268;28;20028;-86
2021/08/20 07:19:27;;;;;;;6.18;3.30;;;;;;;;;;4970579;28;20027;-84
2021/08/20 07:21:52;;;;;;;8.05;3.15;;;;;;;;;;4970878;28;20037;-85
2021/08/20 07:24:18;;;;;;;6.40;3.80;;;;;;;;;;4968245;28;20042;-85
2021/08/20 07:26:43;;;;;;;4.95;3.38;;;;;;;;;;4963877;28;20019;-87
2021/08/20 07:29:08;;;;;;;7.32;4.20;;;;;;;;;;4968602;28;20435;-86
2021/08/20 07:31:35;;;;;;;7.00;4.32;;;;;;;;;;4965012;28;20109;-87
2021/08/20 07:34:01;;;;;;;7.82;4.60;;;;;;;;;;4959601;28;20584;-84
2021/08/20 07:36:26;;;;;;;8.20;4.88;;;;;;;;;;4962996;28;20054;-85
2021/08/20 07:38:51;;;;;;;10.00;4.40;;;;;;;;;;4970904;28;20036;-86
2021/08/20 07:41:17;;;;;;;5.00;4.30;;;;;;;;;;4966079;28;20029;-85
2021/08/20 07:43:43;;;;;;;7.00;4.43;;;;;;;;;;4961797;28;20030;-84
2021/08/20 07:46:08;;;;;;;5.15;4.15;;;;;;;;;;4961230;28;20025;-83
2021/08/20 07:48:34;;;;;;;6.97;4.00;;;;;;;;;;4967102;28;20094;-83
2021/08/20 07:50:59;;;;;;;9.88;5.00;;;;;;;;;;4960038;28;20019;-83
2021/08/20 07:53:24;;;;;;;13.27;9.63;;;;;;;;;;4955861;28;20113;-84
2021/08/20 07:55:50;;;;;;;7.45;4.70;;;;;;;;;;4958070;28;20774;-84
2021/08/20 07:58:15;;;;;;;6.95;4.30;;;;;;;;;;4962468;28;20050;-85
2021/08/20 08:00:41;;;;;;;8.50;4.88;;;;;;;;;;4961542;28;20024;-86
2021/08/20 08:03:07;;;;;;;6.15;4.32;;;;;;;;;;4960354;28;20382;-86
2021/08/20 08:05:32;;;;;;;7.68;4.82;;;;;;;;;;4963486;28;20026;-85
2021/08/20 08:07:58;;;;;;;7.05;4.40;;;;;;;;;;4966050;28;20563;-88
2021/08/20 08:10:24;;;;;;;6.63;4.03;;;;;;;;;;4951687;28;20078;-79
2021/08/20 08:12:50;;;;;;;8.50;4.35;;;;;;;;;;4958742;28;20050;-79
2021/08/20 08:15:15;;;;;;;8.85;4.72;;;;;;;;;;4957651;28;20662;-81
2021/08/20 08:17:41;;;;;;;8.18;4.00;;;;;;;;;;4955939;28;20098;-80
2021/08/20 08:20:08;;;;;;;7.05;4.63;;;;;;;;;;4957905;28;20081;-80
2021/08/20 08:22:33;;;;;;;6.45;4.07;;;;;;;;;;4966349;28;20188;-80
2021/08/20 08:24:59;;;;;;;4.90;3.87;;;;;;;;;;4959725;28;20030;-80
2021/08/20 08:27:24;;;;;;;9.30;4.10;;;;;;;;;;4965310;28;20110;-83
2021/08/20 08:29:49;;;;;;;7.65;4.18;;;;;;;;;;4962979;28;20012;-85
2021/08/20 08:32:15;;;;;;;7.25;3.85;;;;;;;;;;4961811;28;20483;-89
2021/08/20 08:34:41;;;;;;;7.22;3.85;;;;;;;;;;4964585;28;20058;-81
2021/08/20 08:37:06;;;;;;;6.35;4.13;;;;;;;;;;4964528;28;20019;-82
2021/08/20 08:39:32;;;;;;;7.00;3.63;;;;;;;;;;4959098;28;20114;-81
2021/08/20 08:41:57;;;;;;;5.13;3.85;;;;;;;;;;4953612;28;20031;-82
2021/08/20 08:44:23;;;;;;;7.40;4.05;;;;;;;;;;4956671;28;20050;-80
2021/08/20 08:46:48;;;;;;;8.17;4.80;;;;;;;;;;4962910;28;20037;-85
2021/08/20 08:49:17;;;;;;;7.90;3.78;;;;;;;;;;4966310;28;20430;-88
2021/08/20 08:51:43;;;;;;;6.47;3.45;;;;;;;;;;4967918;28;20015;-85
2021/08/20 08:54:11;;;;;;;6.40;3.50;;;;;;;;;;4967738;28;20085;-85
2021/08/20 08:56:36;;;;;;;5.07;3.20;;;;;;;;;;4960585;28;20049;-88
2021/08/20 08:59:02;;;;;;;7.03;3.88;;;;;;;;;;4952745;28;20498;-83
2021/08/20 09:01:27;;;;;;;6.80;4.13;;;;;;;;;;4967369;28;20126;-79
2021/08/20 09:04:25;;;;;;;8.40;4.50;;;;;;;;;;4971544;28;20109;-81
2021/08/20 09:06:51;;;;;;;7.10;4.60;;;;;;;;;;4927921;29;20031;-80
2021/08/20 09:09:18;;;;;;;13.95;7.65;;;;;;;;;;4933464;28;20050;-80
2021/08/20 09:11:49;;;;;;;10.13;5.85;;;;;;;;;;4965630;28;20402;-81
2021/08/20 09:14:16;;;;;;;8.05;5.13;;;;;;;;;;4961093;28;20114;-80
2021/08/20 09:16:41;;;;;;;7.68;5.60;;;;;;;;;;4969719;28;20244;-80
2021/08/20 09:19:08;;;;;;;9.77;5.93;;;;;;;;;;4968826;28;20022;-81
2021/08/20 09:21:34;;;;;;;6.97;5.22;;;;;;;;;;4962599;28;20175;-80
2021/08/20 09:24:00;;;;;;;6.47;5.13;;;;;;;;;;4964632;28;20245;-80
2021/08/20 09:26:25;;;;;;;6.63;5.07;;;;;;;;;;4967382;28;20019;-82
2021/08/20 09:28:51;;;;;;;9.65;6.10;;;;;;;;;;4965734;28;20035;-84
2021/08/20 09:31:16;;;;;;;10.25;5.40;;;;;;;;;;4971038;28;20018;-82
2021/08/20 09:33:41;;;;;;;9.15;5.20;;;;;;;;;;4968324;28;20023;-82
2021/08/20 09:36:11;;;;;;;8.67;4.53;;;;;;;;;;4967535;28;20030;-83
2021/08/20 09:38:38;;;;;;;6.85;4.13;;;;;;;;;;4964391;28;20266;-84
2021/08/20 09:41:10;;;;;;;8.75;5.00;;;;;;;;;;4967553;28;20109;-84
2021/08/20 09:43:37;;;;;;;5.63;4.10;;;;;;;;;;4966574;28;20022;-85
2021/08/20 09:46:10;;;;;;;6.03;4.40;;;;;;;;;;4962840;28;20505;-83
2021/08/20 09:48:43;;;;;;;10.68;4.85;;;;;;;;;;4964212;28;20023;-84
2021/08/20 09:51:09;;;;;;;7.70;4.18;;;;;;;;;;4956420;28;20122;-84
2021/08/20 09:53:35;;;;;;;9.77;4.88;;;;;;;;;;4958697;28;20606;-84
2021/08/20 09:56:04;;;;;;;6.50;4.23;;;;;;;;;;4964233;28;20019;-82
2021/08/20 09:58:29;;;;;;;;;;;;;;;;;;4960206;28;20282;-91
2021/08/20 10:00:55;;;;;;;5.60;3.85;;;;;;;;;;4970125;28;19919;-83
2021/08/20 10:03:21;;;;;;;6.78;4.60;;;;;;;;;;4956989;28;20386;-83
2021/08/20 10:05:49;;;;;;;8.65;4.22;;;;;;;;;;4964555;28;20488;-83
2021/08/20 10:08:15;;;;;;;6.78;4.25;;;;;;;;;;4962719;28;20715;-83
2021/08/20 10:10:44;;;;;;;9.68;7.38;;;;;;;;;;4958082;28;20114;-86
2021/08/20 10:13:13;;;;;;;10.57;6.30;;;;;;;;;;4958867;28;20490;-84
2021/08/20 10:15:39;;;;;;;6.95;4.70;;;;;;;;;;4961412;28;20077;-83
2021/08/20 10:18:06;;;;;;;9.63;4.90;;;;;;;;;;4957202;28;20058;-83
2021/08/20 10:20:33;;;;;;;8.85;4.65;;;;;;;;;;4957532;28;20262;-82
2021/08/20 10:22:59;;;;;;;8.32;4.90;;;;;;;;;;4963286;28;20019;-83
2021/08/20 10:25:24;;;;;;;6.05;4.32;;;;;;;;;;4969375;28;20082;-83
2021/08/20 10:27:52;;;;;;;6.28;4.60;;;;;;;;;;4971409;28;20015;-82
2021/08/20 10:30:18;;;;;;;6.83;3.67;;;;;;;;;;4968509;28;20169;-84
2021/08/20 10:33:03;;;;;;;5.18;4.15;;;;;;;;;;4967976;28;20023;-85
2021/08/20 10:35:48;;;;;;;8.13;4.53;;;;;;;;;;4969076;28;20383;-86
2021/08/20 10:38:36;;;;;;;4.40;3.55;;;;;;;;;;4954522;28;20706;-85
2021/08/20 10:41:16;;;;;;;6.18;4.30;;;;;;;;;;4976205;28;20106;-85
2021/08/20 10:43:52;;;;;;;4.75;3.67;;;;;;;;;;4958164;28;20385;-80
2021/08/20 10:46:36;;;;;;;7.55;4.07;;;;;;;;;;4959353;28;20483;-79
2021/08/20 10:49:11;;;;;;;5.78;4.07;;;;;;;;;;4971382;28;20367;-79
2021/08/20 10:51:48;;;;;;;4.95;3.50;;;;;;;;;;4972550;28;20370;-79
2021/08/20 10:54:15;;;;;;;11.73;4.10;;;;;;;;;;4970170;28;20377;-80
2021/08/20 10:56:40;;;;;;;5.10;3.47;;;;;;;;;;4966224;28;20429;-84
2021/08/20 10:59:06;;;;;;;5.55;3.53;;;;;;;;;;4971918;28;20047;-81
2021/08/20 11:01:32;;;;;;;6.18;3.65;;;;;;;;;;4968362;28;20031;-81
2021/08/20 11:03:59;;;;;;;7.00;3.70;;;;;;;;;;4970898;28;20417;-82
2021/08/20 11:07:00;;;;;;;5.15;3.83;;;;;;;;;;4969515;28;20359;-81
2021/08/20 11:09:26;;;;;;;5.25;3.47;;;;;;;;;;4931190;29;20372;-81
2021/08/20 11:11:52;;;;;;;7.95;3.78;;;;;;;;;;4962832;28;20507;-81
2021/08/20 11:14:21;;;;;;;4.80;2.92;;;;;;;;;;4968788;28;20031;-83
2021/08/20 11:16:47;;;;;;;7.80;4.03;;;;;;;;;;4970462;28;20429;-79
2021/08/20 11:19:32;;;;;;;7.80;4.00;;;;;;;;;;4967135;28;20023;-81
2021/08/20 11:22:11;;;;;;;6.18;3.70;;;;;;;;;;4965006;28;20090;-80
2021/08/20 11:24:36;;;;;;;9.02;3.60;;;;;;;;;;4965991;28;20433;-81
2021/08/20 11:27:15;;;;;;;6.90;3.75;;;;;;;;;;4963293;28;20548;-81
2021/08/20 11:29:41;;;;;;;7.70;3.78;;;;;;;;;;4967622;28;20018;-81
2021/08/20 11:32:06;;;;;;;6.97;3.38;;;;;;;;;;4962816;28;20386;-81
2021/08/20 11:34:32;;;;;;;5.15;3.90;;;;;;;;;;4974389;28;20034;-82
2021/08/20 11:37:01;;;;;;;6.78;3.72;;;;;;;;;;4971108;28;20082;-81
2021/08/20 11:39:28;;;;;;;4.13;3.30;;;;;;;;;;4964596;28;20038;-81
2021/08/20 11:42:07;;;;;;;6.43;3.60;;;;;;;;;;4972987;28;20846;-81
2021/08/20 11:44:32;;;;;;;5.60;2.83;;;;;;;;;;4967729;28;20019;-82
2021/08/20 11:46:58;;;;;;;5.07;3.40;;;;;;;;;;4963608;28;20049;-81
2021/08/20 11:49:24;;;;;;;5.22;3.45;;;;;;;;;;4966732;28;20289;-82
2021/08/20 11:51:50;;;;;;;4.88;3.20;;;;;;;;;;4966551;28;20019;-81
2021/08/20 11:54:16;;;;;;;5.32;3.00;;;;;;;;;;4958743;28;20382;-82
2021/08/20 11:56:54;;;;;;;5.93;3.60;;;;;;;;;;4963685;28;20022;-83
2021/08/20 11:59:20;;;;;;;4.15;3.35;;;;;;;;;;4966101;28;20122;-80
2021/08/20 12:01:46;;;;;;;5.35;3.80;;;;;;;;;;4969376;28;20027;-80
2021/08/20 12:04:11;;;;;;;7.47;3.88;;;;;;;;;;4965180;28;20035;-82
2021/08/20 12:06:38;;;;;;;5.95;3.53;;;;;;;;;;4968843;28;20022;-82
2021/08/20 12:09:07;;;;;;;5.07;2.95;;;;;;;;;;4967308;28;20493;-81
2021/08/20 12:11:32;;;;;;;4.95;3.20;;;;;;;;;;4971729;28;20425;-82
2021/08/20 12:13:57;;;;;;;3.58;3.05;;;;;;;;;;4965946;28;20034;-81
2021/08/20 12:16:36;;;;;;;15.45;9.38;;;;;;;;;;4970980;28;20101;-81
2021/08/20 12:19:10;;;;;;;9.57;7.10;;;;;;;;;;4968652;28;20613;-82
2021/08/20 12:21:35;;;;;;;6.80;3.60;;;;;;;;;;4964618;28;20365;-82
2021/08/20 12:24:02;;;;;;;6.75;3.60;;;;;;;;;;4968119;28;20054;-81
2021/08/20 12:26:28;;;;;;;5.97;3.92;;;;;;;;;;4968764;28;20351;-85
2021/08/20 12:28:54;;;;;;;3.97;2.83;;;;;;;;;;4970710;28;20647;-86
2021/08/20 12:31:20;;;;;;;5.13;3.08;;;;;;;;;;4963689;28;20074;-82
2021/08/20 12:33:59;;;;;;;5.70;3.28;;;;;;;;;;4968010;28;20363;-84
2021/08/20 12:36:24;;;;;;;5.28;3.60;;;;;;;;;;4964829;28;20101;-83
2021/08/20 12:39:05;;;;;;;7.50;3.40;;;;;;;;;;4954162;28;20450;-84
2021/08/20 12:41:30;;;;;;;4.53;3.50;;;;;;;;;;4964149;28;20270;-82
2021/08/20 12:43:56;;;;;;;4.85;3.65;;;;;;;;;;4968100;28;20029;-82
2021/08/20 12:46:33;;;;;;;4.70;3.20;;;;;;;;;;4966298;28;20118;-84
2021/08/20 12:48:59;;;;;;;5.20;2.95;;;;;;;;;;4960475;28;20045;-81
2021/08/20 12:51:25;;;;;;;7.03;3.22;;;;;;;;;;4963918;28;20377;-86
2021/08/20 12:54:21;;;;;;;7.53;3.50;;;;;;;;;;4970167;28;20042;-83
2021/08/20 12:56:48;;;;;;;5.80;3.08;;;;;;;;;;4958858;28;20097;-83
2021/08/20 12:59:16;;;;;;;5.65;3.30;;;;;;;;;;4962005;28;20379;-82
2021/08/20 13:01:42;;;;;;;9.75;6.75;;;;;;;;;;4963263;28;20586;-80
2021/08/20 13:04:07;;;;;;;7.72;5.45;;;;;;;;;;4962201;28;20113;-80
2021/08/20 13:06:33;;;;;;;7.15;4.10;;;;;;;;;;4963926;28;20030;-79
2021/08/20 13:08:58;;;;;;;6.45;3.00;;;;;;;;;;4959543;28;20019;-80
2021/08/20 13:11:24;;;;;;;4.60;3.10;;;;;;;;;;4964722;28;20035;-80
2021/08/20 13:13:50;;;;;;;4.20;3.35;;;;;;;;;;4967586;28;20019;-79
2021/08/20 13:16:15;;;;;;;5.20;3.28;;;;;;;;;;4969713;28;20027;-78
2021/08/20 13:18:44;;;;;;;4.32;3.13;;;;;;;;;;4968322;28;20481;-79
2021/08/20 13:21:09;;;;;;;7.88;3.30;;;;;;;;;;4966415;28;20680;-79
2021/08/20 13:23:35;;;;;;;5.78;3.53;;;;;;;;;;4965632;28;20065;-80
2021/08/20 13:26:03;;;;;;;5.70;3.10;;;;;;;;;;4964656;28;20458;-80
2021/08/20 13:28:29;;;;;;;3.90;2.78;;;;;;;;;;4963833;28;20378;-79
2021/08/20 13:30:54;;;;;;;7.88;3.70;;;;;;;;;;4959309;28;20030;-79
2021/08/20 13:33:19;;;;;;;9.00;3.70;;;;;;;;;;4968374;28;20034;-80
2021/08/20 13:35:45;;;;;;;6.20;3.38;;;;;;;;;;4969363;28;20485;-82
2021/08/20 13:38:13;;;;;;;6.97;3.40;;;;;;;;;;4968273;28;20634;-81
2021/08/20 13:40:41;;;;;;;6.40;3.57;;;;;;;;;;4968281;28;20557;-79
2021/08/20 13:43:11;;;;;;;5.13;3.40;;;;;;;;;;4967140;28;20039;-81
2021/08/20 13:45:38;;;;;;;7.45;2.88;;;;;;;;;;4960160;28;20745;-81
2021/08/20 13:48:04;;;;;;;5.78;3.22;;;;;;;;;;4960122;28;20504;-81
2021/08/20 13:50:29;;;;;;;7.60;4.25;;;;;;;;;;4957917;28;20377;-81
2021/08/20 13:52:54;;;;;;;8.93;5.97;;;;;;;;;;4959267;28;20022;-80
2021/08/20 13:55:20;;;;;;;7.10;3.42;;;;;;;;;;4959162;28;20031;-81
2021/08/20 13:57:45;;;;;;;5.03;3.20;;;;;;;;;;4963423;28;20046;-81
2021/08/20 14:00:11;;;;;;;3.70;2.92;;;;;;;;;;4964594;28;20030;-80
2021/08/20 14:02:36;;;;;;;4.82;3.25;;;;;;;;;;4968525;28;20094;-80
2021/08/20 14:05:02;;;;;;;6.00;3.22;;;;;;;;;;4963434;28;20075;-81
2021/08/20 14:07:28;;;;;;;4.70;3.13;;;;;;;;;;4967260;28;20081;-80
2021/08/20 14:09:54;;;;;;;3.50;2.90;;;;;;;;;;4964857;28;20378;-81
2021/08/20 14:12:20;;;;;;;5.35;3.10;;;;;;;;;;4967034;28;20029;-81
2021/08/20 14:14:46;;;;;;;4.80;3.38;;;;;;;;;;4969030;28;20034;-81
2021/08/20 14:17:11;;;;;;;8.02;3.85;;;;;;;;;;4969830;28;20522;-81
2021/08/20 14:19:37;;;;;;;4.80;2.90;;;;;;;;;;4971979;28;20015;-80
2021/08/20 14:22:02;;;;;;;6.53;3.10;;;;;;;;;;4968965;28;20019;-84
2021/08/20 14:24:28;;;;;;;3.95;3.10;;;;;;;;;;4968606;28;20030;-82
2021/08/20 14:26:53;;;;;;;6.00;3.28;;;;;;;;;;4966839;28;20118;-80
2021/08/20 14:29:18;;;;;;;4.78;3.17;;;;;;;;;;4965901;28;20110;-81
2021/08/20 14:31:44;;;;;;;12.07;8.60;;;;;;;;;;4966932;28;20826;-80
2021/08/20 14:34:09;;;;;;;6.05;3.88;;;;;;;;;;4972703;28;20548;-81
2021/08/20 14:36:34;;;;;;;5.20;4.13;;;;;;;;;;4967049;28;20018;-81
2021/08/20 14:39:00;;;;;;;4.40;3.15;;;;;;;;;;4964528;28;20031;-81
2021/08/20 14:41:25;;;;;;;4.47;3.37;;;;;;;;;;4970116;28;20030;-81